sensor_id;sensor_type;location;lat;lon;timestamp;P1;durP1;ratioP1;P2;durP2;ratioP2
15192;SDS011;7697;51.630;7.484;2023-07-30T00:01:19;3.17;;;2.20;;
15192;SDS011;7697;51.630;7.484;2023-07-30T00:06:23;2.80;;;2.53;;
15192;SDS011;7697;51.630;7.484;2023-07-30T00:11:26;4.07;;;2.53;;
15192;SDS011;7697;51.630;7.484;2023-07-30T00:16:31;4.15;;;2.72;;
15192;SDS011;7697;51.630;7.484;2023-07-30T00:21:35;5.05;;;2.88;;
15192;SDS011;7697;51.630;7.484;2023-07-30T00:26:39;5.93;;;2.92;;
15192;SDS011;7697;51.630;7.484;2023-07-30T00:31:44;3.10;;;2.55;;
15192;SDS011;7697;51.630;7.484;2023-07-30T00:36:47;3.50;;;2.60;;
15192;SDS011;7697;51.630;7.484;2023-07-30T00:41:49;3.63;;;2.70;;
15192;SDS011;7697;51.630;7.484;2023-07-30T00:46:55;4.63;;;2.50;;
15192;SDS011;7697;51.630;7.484;2023-07-30T00:51:58;4.53;;;2.40;;
15192;SDS011;7697;51.630;7.484;2023-07-30T00:57:01;3.42;;;2.50;;
15192;SDS011;7697;51.630;7.484;2023-07-30T01:02:07;3.67;;;2.80;;
15192;SDS011;7697;51.630;7.484;2023-07-30T01:07:09;4.35;;;2.78;;
15192;SDS011;7697;51.630;7.484;2023-07-30T01:12:12;4.43;;;2.45;;
15192;SDS011;7697;51.630;7.484;2023-07-30T01:17:17;4.13;;;2.63;;
15192;SDS011;7697;51.630;7.484;2023-07-30T01:22:22;4.45;;;2.35;;
15192;SDS011;7697;51.630;7.484;2023-07-30T01:27:25;3.75;;;2.28;;
15192;SDS011;7697;51.630;7.484;2023-07-30T01:32:32;4.05;;;2.72;;
15192;SDS011;7697;51.630;7.484;2023-07-30T01:37:38;4.93;;;3.00;;
15192;SDS011;7697;51.630;7.484;2023-07-30T01:42:42;6.78;;;2.92;;
15192;SDS011;7697;51.630;7.484;2023-07-30T01:47:45;4.35;;;2.83;;
15192;SDS011;7697;51.630;7.484;2023-07-30T01:52:50;4.05;;;2.50;;
15192;SDS011;7697;51.630;7.484;2023-07-30T01:57:54;3.72;;;2.50;;
15192;SDS011;7697;51.630;7.484;2023-07-30T02:02:57;3.72;;;2.30;;
15192;SDS011;7697;51.630;7.484;2023-07-30T02:08:02;5.10;;;2.60;;
15192;SDS011;7697;51.630;7.484;2023-07-30T02:13:05;4.20;;;2.60;;
15192;SDS011;7697;51.630;7.484;2023-07-30T02:18:08;3.92;;;2.60;;
15192;SDS011;7697;51.630;7.484;2023-07-30T02:23:13;3.10;;;2.38;;
15192;SDS011;7697;51.630;7.484;2023-07-30T02:28:16;3.63;;;2.60;;
15192;SDS011;7697;51.630;7.484;2023-07-30T02:33:19;3.97;;;2.60;;
15192;SDS011;7697;51.630;7.484;2023-07-30T02:38:24;5.45;;;2.60;;
15192;SDS011;7697;51.630;7.484;2023-07-30T02:43:27;2.95;;;2.53;;
15192;SDS011;7697;51.630;7.484;2023-07-30T02:48:30;3.40;;;2.47;;
15192;SDS011;7697;51.630;7.484;2023-07-30T02:53:34;4.03;;;2.70;;
15192;SDS011;7697;51.630;7.484;2023-07-30T02:58:37;3.85;;;2.47;;
15192;SDS011;7697;51.630;7.484;2023-07-30T03:03:42;2.92;;;2.28;;
15192;SDS011;7697;51.630;7.484;2023-07-30T03:08:46;3.08;;;2.30;;
15192;SDS011;7697;51.630;7.484;2023-07-30T03:13:48;3.70;;;2.50;;
15192;SDS011;7697;51.630;7.484;2023-07-30T03:18:51;3.38;;;2.17;;
15192;SDS011;7697;51.630;7.484;2023-07-30T03:23:55;4.07;;;2.70;;
15192;SDS011;7697;51.630;7.484;2023-07-30T03:28:59;3.88;;;2.53;;
15192;SDS011;7697;51.630;7.484;2023-07-30T03:34:01;4.25;;;2.92;;
15192;SDS011;7697;51.630;7.484;2023-07-30T03:39:05;4.78;;;2.55;;
15192;SDS011;7697;51.630;7.484;2023-07-30T03:44:09;5.72;;;3.15;;
15192;SDS011;7697;51.630;7.484;2023-07-30T03:49:11;4.93;;;2.83;;
15192;SDS011;7697;51.630;7.484;2023-07-30T03:54:16;4.20;;;2.78;;
15192;SDS011;7697;51.630;7.484;2023-07-30T03:59:19;3.63;;;2.90;;
15192;SDS011;7697;51.630;7.484;2023-07-30T04:04:21;6.10;;;2.85;;
15192;SDS011;7697;51.630;7.484;2023-07-30T04:09:25;5.95;;;3.28;;
15192;SDS011;7697;51.630;7.484;2023-07-30T04:14:27;5.65;;;3.20;;
15192;SDS011;7697;51.630;7.484;2023-07-30T04:19:31;4.53;;;2.80;;
15192;SDS011;7697;51.630;7.484;2023-07-30T04:24:35;3.88;;;2.58;;
15192;SDS011;7697;51.630;7.484;2023-07-30T04:29:38;4.55;;;2.58;;
15192;SDS011;7697;51.630;7.484;2023-07-30T04:34:40;4.25;;;2.58;;
15192;SDS011;7697;51.630;7.484;2023-07-30T04:39:44;7.47;;;2.90;;
15192;SDS011;7697;51.630;7.484;2023-07-30T04:44:46;5.30;;;2.53;;
15192;SDS011;7697;51.630;7.484;2023-07-30T04:49:48;6.20;;;2.75;;
15192;SDS011;7697;51.630;7.484;2023-07-30T04:54:52;5.05;;;3.00;;
15192;SDS011;7697;51.630;7.484;2023-07-30T04:59:55;4.93;;;2.80;;
15192;SDS011;7697;51.630;7.484;2023-07-30T05:04:58;7.43;;;3.53;;
15192;SDS011;7697;51.630;7.484;2023-07-30T05:10:02;6.00;;;3.35;;
15192;SDS011;7697;51.630;7.484;2023-07-30T05:15:06;6.55;;;3.25;;
15192;SDS011;7697;51.630;7.484;2023-07-30T05:20:09;7.88;;;3.10;;
15192;SDS011;7697;51.630;7.484;2023-07-30T05:25:13;7.03;;;3.47;;
15192;SDS011;7697;51.630;7.484;2023-07-30T05:30:15;8.77;;;3.90;;
15192;SDS011;7697;51.630;7.484;2023-07-30T05:35:18;7.43;;;4.60;;
15192;SDS011;7697;51.630;7.484;2023-07-30T05:40:21;8.80;;;4.80;;
15192;SDS011;7697;51.630;7.484;2023-07-30T05:45:23;8.82;;;4.93;;
15192;SDS011;7697;51.630;7.484;2023-07-30T05:50:25;7.45;;;3.92;;
15192;SDS011;7697;51.630;7.484;2023-07-30T05:55:29;8.95;;;4.43;;
15192;SDS011;7697;51.630;7.484;2023-07-30T06:00:30;9.38;;;4.13;;
15192;SDS011;7697;51.630;7.484;2023-07-30T06:05:32;7.45;;;4.43;;
15192;SDS011;7697;51.630;7.484;2023-07-30T06:10:36;7.30;;;4.80;;
15192;SDS011;7697;51.630;7.484;2023-07-30T06:15:38;8.32;;;4.93;;
15192;SDS011;7697;51.630;7.484;2023-07-30T06:20:43;8.82;;;4.40;;
15192;SDS011;7697;51.630;7.484;2023-07-30T06:25:47;8.68;;;4.10;;
15192;SDS011;7697;51.630;7.484;2023-07-30T06:30:54;6.75;;;4.13;;
15192;SDS011;7697;51.630;7.484;2023-07-30T06:35:57;5.78;;;3.33;;
15192;SDS011;7697;51.630;7.484;2023-07-30T06:41:00;9.95;;;3.95;;
15192;SDS011;7697;51.630;7.484;2023-07-30T06:46:02;6.28;;;3.28;;
15192;SDS011;7697;51.630;7.484;2023-07-30T06:51:05;6.65;;;3.80;;
15192;SDS011;7697;51.630;7.484;2023-07-30T06:56:11;8.52;;;4.10;;
15192;SDS011;7697;51.630;7.484;2023-07-30T07:01:13;6.97;;;3.38;;
15192;SDS011;7697;51.630;7.484;2023-07-30T07:06:15;6.80;;;3.75;;
15192;SDS011;7697;51.630;7.484;2023-07-30T07:11:19;7.38;;;4.43;;
15192;SDS011;7697;51.630;7.484;2023-07-30T07:16:22;5.50;;;3.47;;
15192;SDS011;7697;51.630;7.484;2023-07-30T07:21:24;11.77;;;6.20;;
15192;SDS011;7697;51.630;7.484;2023-07-30T07:26:28;10.77;;;6.07;;
15192;SDS011;7697;51.630;7.484;2023-07-30T07:31:30;9.32;;;6.10;;
15192;SDS011;7697;51.630;7.484;2023-07-30T07:36:32;10.15;;;6.82;;
15192;SDS011;7697;51.630;7.484;2023-07-30T07:41:37;8.20;;;6.60;;
15192;SDS011;7697;51.630;7.484;2023-07-30T07:46:40;10.88;;;6.55;;
15192;SDS011;7697;51.630;7.484;2023-07-30T07:51:53;8.32;;;5.40;;
15192;SDS011;7697;51.630;7.484;2023-07-30T07:56:58;8.55;;;5.38;;
15192;SDS011;7697;51.630;7.484;2023-07-30T08:02:15;8.25;;;5.05;;
15192;SDS011;7697;51.630;7.484;2023-07-30T08:07:19;9.07;;;5.07;;
15192;SDS011;7697;51.630;7.484;2023-07-30T08:12:30;6.65;;;3.90;;
15192;SDS011;7697;51.630;7.484;2023-07-30T08:17:32;7.55;;;4.18;;
15192;SDS011;7697;51.630;7.484;2023-07-30T08:22:34;6.82;;;3.80;;
15192;SDS011;7697;51.630;7.484;2023-07-30T08:27:38;8.68;;;4.22;;
15192;SDS011;7697;51.630;7.484;2023-07-30T08:32:39;7.93;;;3.80;;
15192;SDS011;7697;51.630;7.484;2023-07-30T08:37:41;7.47;;;3.95;;
15192;SDS011;7697;51.630;7.484;2023-07-30T08:42:44;6.70;;;3.60;;
15192;SDS011;7697;51.630;7.484;2023-07-30T08:47:46;8.05;;;3.75;;
15192;SDS011;7697;51.630;7.484;2023-07-30T08:52:49;6.90;;;4.03;;
15192;SDS011;7697;51.630;7.484;2023-07-30T08:57:55;7.40;;;4.47;;
15192;SDS011;7697;51.630;7.484;2023-07-30T09:02:58;10.05;;;4.53;;
15192;SDS011;7697;51.630;7.484;2023-07-30T09:08:02;7.78;;;4.07;;
15192;SDS011;7697;51.630;7.484;2023-07-30T09:13:05;7.80;;;4.15;;
15192;SDS011;7697;51.630;7.484;2023-07-30T09:18:08;7.43;;;4.38;;
15192;SDS011;7697;51.630;7.484;2023-07-30T09:23:09;10.38;;;4.35;;
15192;SDS011;7697;51.630;7.484;2023-07-30T09:28:13;7.75;;;3.80;;
15192;SDS011;7697;51.630;7.484;2023-07-30T09:33:17;8.93;;;4.07;;
15192;SDS011;7697;51.630;7.484;2023-07-30T09:38:21;9.85;;;4.50;;
15192;SDS011;7697;51.630;7.484;2023-07-30T09:43:29;10.43;;;4.45;;
15192;SDS011;7697;51.630;7.484;2023-07-30T09:48:32;8.73;;;3.92;;
15192;SDS011;7697;51.630;7.484;2023-07-30T09:53:34;5.35;;;3.10;;
15192;SDS011;7697;51.630;7.484;2023-07-30T09:58:37;10.02;;;4.30;;
15192;SDS011;7697;51.630;7.484;2023-07-30T10:03:42;6.65;;;3.03;;
15192;SDS011;7697;51.630;7.484;2023-07-30T10:08:44;9.20;;;3.85;;
15192;SDS011;7697;51.630;7.484;2023-07-30T10:13:48;9.25;;;4.00;;
15192;SDS011;7697;51.630;7.484;2023-07-30T10:18:51;6.35;;;3.00;;
15192;SDS011;7697;51.630;7.484;2023-07-30T10:23:59;7.65;;;3.50;;
15192;SDS011;7697;51.630;7.484;2023-07-30T10:29:12;4.38;;;2.20;;
15192;SDS011;7697;51.630;7.484;2023-07-30T10:34:15;5.28;;;2.25;;
15192;SDS011;7697;51.630;7.484;2023-07-30T10:39:18;3.55;;;2.00;;
15192;SDS011;7697;51.630;7.484;2023-07-30T10:44:25;3.60;;;1.88;;
15192;SDS011;7697;51.630;7.484;2023-07-30T10:49:28;4.28;;;2.25;;
15192;SDS011;7697;51.630;7.484;2023-07-30T10:54:32;6.75;;;2.42;;
15192;SDS011;7697;51.630;7.484;2023-07-30T10:59:36;6.20;;;3.10;;
15192;SDS011;7697;51.630;7.484;2023-07-30T11:04:39;8.07;;;3.63;;
15192;SDS011;7697;51.630;7.484;2023-07-30T11:09:40;4.93;;;2.92;;
15192;SDS011;7697;51.630;7.484;2023-07-30T11:14:44;7.75;;;3.35;;
15192;SDS011;7697;51.630;7.484;2023-07-30T11:19:45;5.28;;;2.15;;
15192;SDS011;7697;51.630;7.484;2023-07-30T11:24:48;4.50;;;1.90;;
15192;SDS011;7697;51.630;7.484;2023-07-30T11:29:55;4.40;;;2.00;;
15192;SDS011;7697;51.630;7.484;2023-07-30T11:34:57;5.43;;;2.20;;
15192;SDS011;7697;51.630;7.484;2023-07-30T11:39:59;5.57;;;2.13;;
15192;SDS011;7697;51.630;7.484;2023-07-30T11:50:44;4.47;;;1.80;;
15192;SDS011;7697;51.630;7.484;2023-07-30T11:55:47;5.85;;;2.40;;
15192;SDS011;7697;51.630;7.484;2023-07-30T12:00:49;5.03;;;2.58;;
15192;SDS011;7697;51.630;7.484;2023-07-30T12:05:53;5.03;;;2.15;;
15192;SDS011;7697;51.630;7.484;2023-07-30T12:10:55;6.35;;;2.65;;
15192;SDS011;7697;51.630;7.484;2023-07-30T12:15:57;2.75;;;1.75;;
15192;SDS011;7697;51.630;7.484;2023-07-30T12:21:01;3.90;;;1.73;;
15192;SDS011;7697;51.630;7.484;2023-07-30T12:26:04;5.18;;;2.28;;
15192;SDS011;7697;51.630;7.484;2023-07-30T12:31:06;2.55;;;1.65;;
15192;SDS011;7697;51.630;7.484;2023-07-30T12:36:09;3.38;;;1.65;;
15192;SDS011;7697;51.630;7.484;2023-07-30T12:41:11;3.65;;;2.03;;
15192;SDS011;7697;51.630;7.484;2023-07-30T12:46:13;3.55;;;1.70;;
15192;SDS011;7697;51.630;7.484;2023-07-30T12:51:16;3.40;;;1.30;;
15192;SDS011;7697;51.630;7.484;2023-07-30T12:56:18;2.47;;;1.38;;
15192;SDS011;7697;51.630;7.484;2023-07-30T13:01:20;3.45;;;1.52;;
15192;SDS011;7697;51.630;7.484;2023-07-30T13:06:23;2.63;;;1.55;;
15192;SDS011;7697;51.630;7.484;2023-07-30T13:11:25;2.28;;;1.27;;
15192;SDS011;7697;51.630;7.484;2023-07-30T13:16:26;3.38;;;1.55;;
15192;SDS011;7697;51.630;7.484;2023-07-30T13:21:30;3.35;;;1.10;;
15192;SDS011;7697;51.630;7.484;2023-07-30T13:26:31;3.10;;;1.20;;
15192;SDS011;7697;51.630;7.484;2023-07-30T13:31:33;2.63;;;1.40;;
15192;SDS011;7697;51.630;7.484;2023-07-30T13:36:36;2.40;;;1.30;;
15192;SDS011;7697;51.630;7.484;2023-07-30T13:41:38;3.78;;;1.70;;
15192;SDS011;7697;51.630;7.484;2023-07-30T13:46:40;4.95;;;1.65;;
15192;SDS011;7697;51.630;7.484;2023-07-30T13:51:43;3.40;;;1.50;;
15192;SDS011;7697;51.630;7.484;2023-07-30T13:56:45;4.30;;;1.77;;
15192;SDS011;7697;51.630;7.484;2023-07-30T14:01:47;4.60;;;1.58;;
15192;SDS011;7697;51.630;7.484;2023-07-30T14:06:50;2.97;;;1.48;;
15192;SDS011;7697;51.630;7.484;2023-07-30T14:11:52;2.03;;;1.33;;
15192;SDS011;7697;51.630;7.484;2023-07-30T14:16:54;4.38;;;1.70;;
15192;SDS011;7697;51.630;7.484;2023-07-30T14:21:57;3.25;;;1.73;;
15192;SDS011;7697;51.630;7.484;2023-07-30T14:26:59;3.67;;;1.60;;
15192;SDS011;7697;51.630;7.484;2023-07-30T14:32:00;3.03;;;1.60;;
15192;SDS011;7697;51.630;7.484;2023-07-30T14:37:04;3.45;;;1.50;;
15192;SDS011;7697;51.630;7.484;2023-07-30T14:42:06;2.95;;;1.70;;
15192;SDS011;7697;51.630;7.484;2023-07-30T14:47:08;4.53;;;2.30;;
15192;SDS011;7697;51.630;7.484;2023-07-30T14:52:11;2.45;;;1.50;;
15192;SDS011;7697;51.630;7.484;2023-07-30T14:57:13;2.63;;;1.50;;
15192;SDS011;7697;51.630;7.484;2023-07-30T15:02:15;3.42;;;1.60;;
15192;SDS011;7697;51.630;7.484;2023-07-30T15:07:18;3.65;;;1.88;;
15192;SDS011;7697;51.630;7.484;2023-07-30T15:12:20;3.53;;;1.50;;
15192;SDS011;7697;51.630;7.484;2023-07-30T15:17:22;3.42;;;1.50;;
15192;SDS011;7697;51.630;7.484;2023-07-30T15:22:25;3.13;;;1.80;;
15192;SDS011;7697;51.630;7.484;2023-07-30T15:27:27;3.08;;;1.80;;
15192;SDS011;7697;51.630;7.484;2023-07-30T15:32:29;2.83;;;1.63;;
15192;SDS011;7697;51.630;7.484;2023-07-30T15:37:34;2.42;;;1.50;;
15192;SDS011;7697;51.630;7.484;2023-07-30T15:42:36;2.55;;;1.60;;
15192;SDS011;7697;51.630;7.484;2023-07-30T15:47:38;2.45;;;1.40;;
15192;SDS011;7697;51.630;7.484;2023-07-30T15:52:41;3.03;;;1.80;;
15192;SDS011;7697;51.630;7.484;2023-07-30T15:57:42;3.63;;;1.80;;
15192;SDS011;7697;51.630;7.484;2023-07-30T16:02:44;3.80;;;1.58;;
15192;SDS011;7697;51.630;7.484;2023-07-30T16:07:47;5.18;;;2.00;;
15192;SDS011;7697;51.630;7.484;2023-07-30T16:12:50;3.05;;;1.60;;
15192;SDS011;7697;51.630;7.484;2023-07-30T16:17:51;3.60;;;1.85;;
15192;SDS011;7697;51.630;7.484;2023-07-30T16:22:55;4.00;;;1.90;;
15192;SDS011;7697;51.630;7.484;2023-07-30T16:27:56;4.78;;;1.70;;
15192;SDS011;7697;51.630;7.484;2023-07-30T16:33:00;4.00;;;1.63;;
15192;SDS011;7697;51.630;7.484;2023-07-30T16:38:03;2.60;;;1.48;;
15192;SDS011;7697;51.630;7.484;2023-07-30T16:43:05;3.67;;;1.75;;
15192;SDS011;7697;51.630;7.484;2023-07-30T16:48:08;4.70;;;1.70;;
15192;SDS011;7697;51.630;7.484;2023-07-30T16:53:11;3.17;;;1.83;;
15192;SDS011;7697;51.630;7.484;2023-07-30T16:58:12;2.70;;;1.55;;
15192;SDS011;7697;51.630;7.484;2023-07-30T17:03:14;2.85;;;1.60;;
15192;SDS011;7697;51.630;7.484;2023-07-30T17:08:17;3.95;;;1.65;;
15192;SDS011;7697;51.630;7.484;2023-07-30T17:13:19;4.18;;;1.55;;
15192;SDS011;7697;51.630;7.484;2023-07-30T17:18:21;2.63;;;1.60;;
15192;SDS011;7697;51.630;7.484;2023-07-30T17:23:24;3.70;;;1.70;;
15192;SDS011;7697;51.630;7.484;2023-07-30T17:28:27;3.15;;;1.70;;
15192;SDS011;7697;51.630;7.484;2023-07-30T17:33:29;2.88;;;1.80;;
15192;SDS011;7697;51.630;7.484;2023-07-30T17:38:33;2.42;;;1.55;;
15192;SDS011;7697;51.630;7.484;2023-07-30T17:43:35;6.35;;;1.90;;
15192;SDS011;7697;51.630;7.484;2023-07-30T17:48:38;3.53;;;1.52;;
15192;SDS011;7697;51.630;7.484;2023-07-30T17:53:42;2.80;;;1.75;;
15192;SDS011;7697;51.630;7.484;2023-07-30T17:58:44;3.13;;;1.60;;
15192;SDS011;7697;51.630;7.484;2023-07-30T18:03:46;2.80;;;1.67;;
15192;SDS011;7697;51.630;7.484;2023-07-30T18:08:49;4.15;;;1.75;;
15192;SDS011;7697;51.630;7.484;2023-07-30T18:13:51;3.80;;;1.80;;
15192;SDS011;7697;51.630;7.484;2023-07-30T18:18:52;2.53;;;1.60;;
15192;SDS011;7697;51.630;7.484;2023-07-30T18:23:56;4.05;;;2.20;;
15192;SDS011;7697;51.630;7.484;2023-07-30T18:28:57;3.88;;;1.90;;
15192;SDS011;7697;51.630;7.484;2023-07-30T18:33:59;4.15;;;2.13;;
15192;SDS011;7697;51.630;7.484;2023-07-30T18:39:02;4.53;;;2.00;;
15192;SDS011;7697;51.630;7.484;2023-07-30T18:44:04;6.07;;;1.90;;
15192;SDS011;7697;51.630;7.484;2023-07-30T18:49:06;4.55;;;1.90;;
15192;SDS011;7697;51.630;7.484;2023-07-30T18:54:10;3.20;;;1.92;;
15192;SDS011;7697;51.630;7.484;2023-07-30T18:59:13;4.53;;;1.88;;
15192;SDS011;7697;51.630;7.484;2023-07-30T19:04:15;3.10;;;1.60;;
15192;SDS011;7697;51.630;7.484;2023-07-30T19:09:18;3.85;;;1.70;;
15192;SDS011;7697;51.630;7.484;2023-07-30T19:14:20;3.45;;;1.90;;
15192;SDS011;7697;51.630;7.484;2023-07-30T19:19:22;4.05;;;2.30;;
15192;SDS011;7697;51.630;7.484;2023-07-30T19:24:25;7.28;;;2.97;;
15192;SDS011;7697;51.630;7.484;2023-07-30T19:29:28;8.68;;;3.63;;
15192;SDS011;7697;51.630;7.484;2023-07-30T19:34:30;3.97;;;2.47;;
15192;SDS011;7697;51.630;7.484;2023-07-30T19:39:33;5.57;;;2.67;;
15192;SDS011;7697;51.630;7.484;2023-07-30T19:44:35;3.90;;;2.33;;
15192;SDS011;7697;51.630;7.484;2023-07-30T19:49:37;5.10;;;2.17;;
15192;SDS011;7697;51.630;7.484;2023-07-30T19:54:40;5.22;;;2.03;;
15192;SDS011;7697;51.630;7.484;2023-07-30T19:59:42;4.15;;;2.13;;
15192;SDS011;7697;51.630;7.484;2023-07-30T20:04:44;3.85;;;2.10;;
15192;SDS011;7697;51.630;7.484;2023-07-30T20:09:47;5.50;;;2.10;;
15192;SDS011;7697;51.630;7.484;2023-07-30T20:14:49;6.47;;;2.38;;
15192;SDS011;7697;51.630;7.484;2023-07-30T20:19:51;4.05;;;2.47;;
15192;SDS011;7697;51.630;7.484;2023-07-30T20:24:54;6.80;;;2.60;;
15192;SDS011;7697;51.630;7.484;2023-07-30T20:29:56;6.60;;;3.00;;
15192;SDS011;7697;51.630;7.484;2023-07-30T20:34:58;8.95;;;3.13;;
15192;SDS011;7697;51.630;7.484;2023-07-30T20:40:01;4.70;;;2.38;;
15192;SDS011;7697;51.630;7.484;2023-07-30T20:45:03;4.13;;;2.25;;
15192;SDS011;7697;51.630;7.484;2023-07-30T20:50:06;4.88;;;2.05;;
15192;SDS011;7697;51.630;7.484;2023-07-30T20:55:17;3.97;;;2.13;;
15192;SDS011;7697;51.630;7.484;2023-07-30T21:00:19;3.25;;;1.95;;
15192;SDS011;7697;51.630;7.484;2023-07-30T21:05:21;4.25;;;2.20;;
15192;SDS011;7697;51.630;7.484;2023-07-30T21:10:24;3.03;;;2.05;;
15192;SDS011;7697;51.630;7.484;2023-07-30T21:15:26;2.90;;;1.67;;
15192;SDS011;7697;51.630;7.484;2023-07-30T21:20:29;2.13;;;1.50;;
15192;SDS011;7697;51.630;7.484;2023-07-30T21:25:32;2.80;;;1.90;;
15192;SDS011;7697;51.630;7.484;2023-07-30T21:30:34;3.40;;;1.80;;
15192;SDS011;7697;51.630;7.484;2023-07-30T21:35:36;2.53;;;1.65;;
15192;SDS011;7697;51.630;7.484;2023-07-30T21:40:39;2.60;;;1.55;;
15192;SDS011;7697;51.630;7.484;2023-07-30T21:45:48;3.10;;;1.92;;
15192;SDS011;7697;51.630;7.484;2023-07-30T21:50:56;4.15;;;2.60;;
15192;SDS011;7697;51.630;7.484;2023-07-30T21:56:00;2.50;;;1.80;;
15192;SDS011;7697;51.630;7.484;2023-07-30T22:01:03;2.28;;;1.55;;
15192;SDS011;7697;51.630;7.484;2023-07-30T22:06:04;2.17;;;1.50;;
15192;SDS011;7697;51.630;7.484;2023-07-30T22:11:08;4.38;;;2.28;;
15192;SDS011;7697;51.630;7.484;2023-07-30T22:16:15;2.60;;;1.98;;
15192;SDS011;7697;51.630;7.484;2023-07-30T22:21:17;2.88;;;1.80;;
15192;SDS011;7697;51.630;7.484;2023-07-30T22:26:20;3.40;;;2.38;;
15192;SDS011;7697;51.630;7.484;2023-07-30T22:31:22;3.22;;;2.38;;
15192;SDS011;7697;51.630;7.484;2023-07-30T22:36:24;4.75;;;2.33;;
15192;SDS011;7697;51.630;7.484;2023-07-30T22:41:27;4.55;;;2.70;;
15192;SDS011;7697;51.630;7.484;2023-07-30T22:46:29;4.13;;;2.60;;
15192;SDS011;7697;51.630;7.484;2023-07-30T22:51:31;4.88;;;2.90;;
15192;SDS011;7697;51.630;7.484;2023-07-30T22:56:34;5.10;;;2.85;;
15192;SDS011;7697;51.630;7.484;2023-07-30T23:01:36;5.25;;;2.75;;
15192;SDS011;7697;51.630;7.484;2023-07-30T23:06:37;3.97;;;2.78;;
15192;SDS011;7697;51.630;7.484;2023-07-30T23:11:41;4.88;;;2.70;;
15192;SDS011;7697;51.630;7.484;2023-07-30T23:16:43;5.57;;;3.20;;
15192;SDS011;7697;51.630;7.484;2023-07-30T23:21:45;4.60;;;3.00;;
15192;SDS011;7697;51.630;7.484;2023-07-30T23:26:48;5.63;;;3.15;;
15192;SDS011;7697;51.630;7.484;2023-07-30T23:31:50;7.32;;;3.05;;
15192;SDS011;7697;51.630;7.484;2023-07-30T23:36:53;4.53;;;2.45;;
15192;SDS011;7697;51.630;7.484;2023-07-30T23:41:56;2.47;;;2.20;;
15192;SDS011;7697;51.630;7.484;2023-07-30T23:46:58;2.47;;;2.10;;
15192;SDS011;7697;51.630;7.484;2023-07-30T23:52:00;3.20;;;1.90;;
15192;SDS011;7697;51.630;7.484;2023-07-30T23:57:04;1.92;;;1.75;;
